createdAt,value
2023-03-05T00:01:30.071Z,99733.77
2023-03-05T00:03:58.401Z,99733.59
2023-03-05T00:06:29.103Z,99733.59
2023-03-05T00:08:58.624Z,99733.94
2023-03-05T00:11:30.341Z,99731.55
2023-03-05T00:13:59.800Z,99732.78
2023-03-05T00:16:29.516Z,99735.38
2023-03-05T00:19:00.921Z,99734.52
2023-03-05T00:21:30.804Z,99729.23
2023-03-05T00:24:02.261Z,99729.36
2023-03-05T00:26:31.358Z,99731.52
2023-03-05T00:28:59.984Z,99733.91
2023-03-05T00:31:30.706Z,99730.92
2023-03-05T00:34:02.633Z,99726.43
2023-03-05T00:36:31.437Z,99722.77
2023-03-05T00:39:00.070Z,99724.13
2023-03-05T00:41:28.162Z,99723.03
2023-03-05T00:43:56.223Z,99718.95
2023-03-05T00:46:24.707Z,99714.86
2023-03-05T00:48:53.412Z,99712.52
2023-03-05T00:51:21.676Z,99708.42
2023-03-05T00:53:51.270Z,99703.78
2023-03-05T00:56:19.396Z,99701.46
2023-03-05T00:58:47.780Z,99703.77
2023-03-05T01:01:16.391Z,99704.42
2023-03-05T01:03:44.567Z,99705.27
2023-03-05T01:06:15.139Z,99701.77
2023-03-05T01:08:44.440Z,99703.81
2023-03-05T01:11:12.875Z,99704.39
2023-03-05T01:13:41.167Z,99708.29
2023-03-05T01:16:09.424Z,99712.33
2023-03-05T01:18:38.983Z,99711.02
2023-03-05T01:21:07.288Z,99714.08
2023-03-05T01:23:37.543Z,99718.89
2023-03-05T01:26:06.561Z,99719.81
2023-03-05T01:28:34.753Z,99720.66
2023-03-05T01:31:02.747Z,99721.52
2023-03-05T01:33:30.696Z,99724.80
2023-03-05T01:35:58.650Z,99722.45
2023-03-05T01:38:26.593Z,99725.28
2023-03-05T01:40:54.464Z,99724.95
2023-03-05T01:43:27.892Z,99728.80
2023-03-05T01:46:37.104Z,99728.40
2023-03-05T01:49:17.624Z,99727.93
2023-03-05T01:51:49.719Z,99724.36
2023-03-05T01:54:19.252Z,99725.95
2023-03-05T01:56:50.138Z,99725.66
2023-03-05T01:59:19.389Z,99726.14
2023-03-05T02:01:53.247Z,99732.88
2023-03-05T02:04:23.942Z,99734.48
2023-03-05T02:06:52.131Z,99730.04
2023-03-05T02:09:24.005Z,99729.50
2023-03-05T02:11:52.477Z,99734.67
2023-03-05T02:14:21.200Z,99732.66
2023-03-05T02:16:49.282Z,99731.78
2023-03-05T02:19:17.800Z,99736.20
2023-03-05T02:21:49.556Z,99735.83
2023-03-05T02:24:31.906Z,99735.15
2023-03-05T02:27:01.387Z,99739.57
2023-03-05T02:29:31.700Z,99742.34
2023-03-05T02:32:00.828Z,99739.99
2023-03-05T02:34:28.710Z,99741.23
2023-03-05T02:36:57.099Z,99741.13
2023-03-05T02:39:25.590Z,99743.60
2023-03-05T02:41:54.325Z,99748.35
2023-03-05T02:44:22.407Z,99749.05
2023-03-05T02:46:50.846Z,99753.23
2023-03-05T02:49:18.775Z,99756.02
2023-03-05T02:51:47.113Z,99755.84
2023-03-05T02:54:14.973Z,99756.02
2023-03-05T02:56:43.680Z,99754.01
2023-03-05T02:59:11.696Z,99757.51
2023-03-05T03:01:39.799Z,99760.99
2023-03-05T03:04:08.028Z,99761.31
2023-03-05T03:06:36.064Z,99766.30
2023-03-05T03:09:04.180Z,99776.50
2023-03-05T03:11:32.146Z,99774.05
2023-03-05T03:14:00.791Z,99770.58
2023-03-05T03:16:29.014Z,99771.67
2023-03-05T03:18:56.940Z,99775.32
2023-03-05T03:21:27.058Z,99772.11
2023-03-05T03:23:55.075Z,99773.98
2023-03-05T03:26:23.469Z,99777.89
2023-03-05T03:28:51.503Z,99774.98
2023-03-05T03:31:19.504Z,99771.20
2023-03-05T03:33:47.558Z,99772.45
2023-03-05T03:36:15.473Z,99774.93
2023-03-05T03:38:43.346Z,99779.02
2023-03-05T03:41:11.360Z,99780.45
2023-03-05T03:43:39.351Z,99775.95
2023-03-05T03:46:07.950Z,99772.02
2023-03-05T03:48:36.207Z,99778.09
2023-03-05T03:51:06.217Z,99778.55
2023-03-05T03:53:34.433Z,99780.54
2023-03-05T03:56:03.639Z,99776.06
2023-03-05T03:58:31.861Z,99773.75
2023-03-05T04:00:59.844Z,99777.03
2023-03-05T04:03:27.877Z,99775.79
2023-03-05T04:05:55.759Z,99785.48
2023-03-05T04:08:23.799Z,99786.64
2023-03-05T04:10:51.825Z,99785.27
2023-03-05T04:13:19.845Z,99786.06
2023-03-05T04:15:48.034Z,99782.95
2023-03-05T04:18:16.192Z,99784.98
2023-03-05T04:20:44.126Z,99787.13
2023-03-05T04:23:11.933Z,99786.14
2023-03-05T04:25:40.028Z,99787.75
2023-03-05T04:28:08.140Z,99784.07
2023-03-05T04:30:36.069Z,99780.71
2023-03-05T04:33:04.064Z,99777.31
2023-03-05T04:35:32.025Z,99777.94
2023-03-05T04:37:59.965Z,99777.45
2023-03-05T04:40:27.995Z,99779.52
2023-03-05T04:42:55.900Z,99778.86
2023-03-05T04:45:24.015Z,99779.98
2023-03-05T04:47:51.935Z,99779.03
2023-03-05T04:50:20.094Z,99779.03
2023-03-05T04:52:48.588Z,99777.70
2023-03-05T04:55:18.246Z,99778.66
2023-03-05T04:57:46.232Z,99778.49
2023-03-05T05:00:16.906Z,99780.67
2023-03-05T05:02:48.145Z,99784.80
2023-03-05T05:05:19.535Z,99786.52
2023-03-05T05:07:47.539Z,99783.65
2023-03-05T05:10:16.548Z,99785.91
2023-03-05T05:12:44.576Z,99789.16
2023-03-05T05:15:13.439Z,99790.39
2023-03-05T05:17:41.424Z,99793.01
2023-03-05T05:20:11.964Z,99795.59
2023-03-05T05:22:40.059Z,99797.67
2023-03-05T05:25:09.609Z,99796.51
2023-03-05T05:27:39.434Z,99799.14
2023-03-05T05:30:08.529Z,99799.19
2023-03-05T05:32:36.538Z,99803.07
2023-03-05T05:35:04.810Z,99807.19
2023-03-05T05:37:32.952Z,99806.30
2023-03-05T05:40:00.893Z,99804.55
2023-03-05T05:42:29.631Z,99808.62
2023-03-05T05:44:57.474Z,99811.10
2023-03-05T05:47:25.464Z,99814.52
2023-03-05T05:49:53.402Z,99821.05
2023-03-05T05:52:22.029Z,99823.95
2023-03-05T05:54:53.128Z,99828.55
2023-03-05T05:57:21.484Z,99827.78
2023-03-05T05:59:49.325Z,99831.23
2023-03-05T06:02:22.506Z,99833.88
2023-03-05T06:04:58.262Z,99835.91
2023-03-05T06:07:26.479Z,99839.70
2023-03-05T06:09:56.741Z,99839.17
2023-03-05T06:12:24.841Z,99840.41
2023-03-05T06:14:54.070Z,99839.88
2023-03-05T06:17:29.821Z,99843.82
2023-03-05T06:20:04.627Z,99844.20
2023-03-05T06:22:36.963Z,99844.71
2023-03-05T06:25:08.395Z,99847.03
2023-03-05T06:27:40.242Z,99850.55
2023-03-05T06:30:11.910Z,99854.00
2023-03-05T06:32:39.953Z,99853.89
2023-03-05T06:35:09.195Z,99852.57
2023-03-05T06:37:37.618Z,99850.17
2023-03-05T06:40:07.805Z,99851.86
2023-03-05T06:42:35.709Z,99853.11
2023-03-05T06:45:05.096Z,99849.21
2023-03-05T06:47:34.448Z,99851.02
2023-03-05T06:50:02.455Z,99850.23
2023-03-05T06:52:30.426Z,99851.30
2023-03-05T06:54:58.364Z,99848.22
2023-03-05T06:57:30.640Z,99848.08
2023-03-05T06:59:59.580Z,99849.13
2023-03-05T07:02:28.810Z,99850.45
2023-03-05T07:04:56.839Z,99850.43
2023-03-05T07:07:28.692Z,99850.95
2023-03-05T07:09:57.646Z,99850.23
2023-03-05T07:12:26.864Z,99853.25
2023-03-05T07:14:59.772Z,99850.52
2023-03-05T07:17:30.020Z,99856.46
2023-03-05T07:19:57.894Z,99858.21
2023-03-05T07:22:28.145Z,99860.73
2023-03-05T07:24:56.300Z,99863.99
2023-03-05T07:27:26.520Z,99862.73
2023-03-05T07:29:57.019Z,99861.65
2023-03-05T07:32:29.486Z,99862.73
2023-03-05T07:34:57.580Z,99859.38
2023-03-05T07:37:25.621Z,99859.05
2023-03-05T07:39:53.754Z,99860.30
2023-03-05T07:42:21.795Z,99861.00
2023-03-05T07:44:53.255Z,99862.74
2023-03-05T07:47:21.274Z,99859.73
2023-03-05T07:49:50.015Z,99860.52
2023-03-05T07:52:18.045Z,99861.92
2023-03-05T07:54:46.146Z,99858.39
2023-03-05T07:57:15.333Z,99859.58
2023-03-05T07:59:43.524Z,99857.70
2023-03-05T08:02:13.239Z,99858.13
2023-03-05T08:04:43.291Z,99858.34
2023-03-05T08:07:14.888Z,99858.55
2023-03-05T08:09:42.919Z,99858.64
2023-03-05T08:12:11.071Z,99860.00
2023-03-05T08:14:39.304Z,99856.83
2023-03-05T08:17:08.376Z,99855.46
2023-03-05T08:19:36.409Z,99855.30
2023-03-05T08:22:04.343Z,99857.73
2023-03-05T08:24:32.200Z,99858.88
2023-03-05T08:27:13.664Z,99858.81
2023-03-05T08:29:53.996Z,99860.85
2023-03-05T08:32:22.389Z,99862.98
2023-03-05T08:34:50.463Z,99861.67
2023-03-05T08:37:18.464Z,99856.83
2023-03-05T08:39:46.467Z,99857.31
2023-03-05T08:42:14.293Z,99857.00
2023-03-05T08:44:42.285Z,99857.25
2023-03-05T08:47:10.323Z,99859.80
2023-03-05T08:49:38.434Z,99856.80
2023-03-05T08:52:06.435Z,99856.58
2023-03-05T08:54:34.580Z,99857.50
2023-03-05T08:57:03.321Z,99856.48
2023-03-05T08:59:31.388Z,99854.60
2023-03-05T09:02:03.739Z,99854.08
2023-03-05T09:04:36.678Z,99856.77
2023-03-05T09:07:04.887Z,99858.58
2023-03-05T09:09:33.112Z,99854.54
2023-03-05T09:12:02.155Z,99850.73
2023-03-05T09:14:30.279Z,99852.20
2023-03-05T09:16:58.670Z,99852.46
2023-03-05T09:19:27.641Z,99850.73
2023-03-05T09:21:57.233Z,99849.96
2023-03-05T09:24:25.555Z,99849.66
2023-03-05T09:26:53.494Z,99850.44
2023-03-05T09:29:21.626Z,99849.41
2023-03-05T09:31:52.483Z,99846.95
2023-03-05T09:34:20.586Z,99844.58
2023-03-05T09:36:48.829Z,99842.73
2023-03-05T09:39:17.501Z,99841.05
2023-03-05T09:42:10.372Z,99835.05
2023-03-05T09:44:39.054Z,99830.47
2023-03-05T09:47:28.598Z,99829.61
2023-03-05T09:50:32.490Z,99824.04
2023-03-05T09:53:21.610Z,99820.40
2023-03-05T09:55:55.329Z,99817.75
2023-03-05T09:58:40.267Z,99813.81
2023-03-05T10:01:14.185Z,99815.67
2023-03-05T10:04:00.156Z,99814.32
2023-03-05T10:06:32.034Z,99813.14
2023-03-05T10:09:07.051Z,99809.89
2023-03-05T10:11:50.327Z,99808.70
2023-03-05T10:14:28.668Z,99805.68
2023-03-05T10:16:59.283Z,99803.08
2023-03-05T10:19:55.910Z,99799.80
2023-03-05T10:22:28.970Z,99800.90
2023-03-05T10:25:14.045Z,99800.08
2023-03-05T10:27:54.551Z,99794.46
2023-03-05T10:30:32.155Z,99793.95
2023-03-05T10:33:18.587Z,99790.39
2023-03-05T10:36:17.403Z,99789.67
2023-03-05T10:39:01.043Z,99791.42
2023-03-05T10:41:53.270Z,99786.36
2023-03-05T10:44:40.675Z,99787.68
2023-03-05T10:47:26.320Z,99791.69
2023-03-05T10:49:55.963Z,99791.08
2023-03-05T10:52:46.717Z,99796.39
2023-03-05T10:55:22.522Z,99795.35
2023-03-05T10:57:50.551Z,99793.47
2023-03-05T11:00:28.075Z,99789.09
2023-03-05T11:03:10.538Z,99785.48
2023-03-05T11:05:38.494Z,99781.42
2023-03-05T11:08:30.653Z,99778.09
2023-03-05T11:11:21.905Z,99778.40
2023-03-05T11:13:53.586Z,99773.25
2023-03-05T11:16:28.725Z,99766.42
2023-03-05T11:19:18.719Z,99764.36
2023-03-05T11:22:05.173Z,99763.14
2023-03-05T11:24:34.076Z,99755.42
2023-03-05T11:27:02.591Z,99755.90
2023-03-05T11:29:47.751Z,99751.12
2023-03-05T11:32:22.291Z,99749.54
2023-03-05T11:34:50.425Z,99737.94
2023-03-05T11:37:30.394Z,99736.67
2023-03-05T11:40:10.532Z,99736.16
2023-03-05T11:42:40.690Z,99732.67
2023-03-05T11:45:17.812Z,99729.79
2023-03-05T11:47:50.249Z,99725.89
2023-03-05T11:50:23.406Z,99724.33
2023-03-05T11:52:55.795Z,99726.80
2023-03-05T11:55:40.687Z,99722.40
2023-03-05T11:58:27.658Z,99717.98
2023-03-05T12:00:56.690Z,99713.55
2023-03-05T12:03:32.036Z,99708.93
2023-03-05T12:06:06.861Z,99702.16
2023-03-05T12:08:38.746Z,99701.80
2023-03-05T12:11:15.562Z,99704.62
2023-03-05T12:13:48.604Z,99700.57
2023-03-05T12:16:46.337Z,99696.58
2023-03-05T12:19:23.827Z,99694.80
2023-03-05T12:21:53.230Z,99693.39
2023-03-05T12:24:26.678Z,99692.17
2023-03-05T12:27:06.063Z,99690.88
2023-03-05T12:29:51.960Z,99687.11
2023-03-05T12:32:25.664Z,99678.02
2023-03-05T12:34:57.145Z,99679.80
2023-03-05T12:37:27.301Z,99673.90
2023-03-05T12:40:01.098Z,99669.95
2023-03-05T12:42:29.086Z,99667.59
2023-03-05T12:45:26.604Z,99665.63
2023-03-05T12:48:00.398Z,99662.48
2023-03-05T12:50:28.454Z,99661.51
2023-03-05T12:52:56.433Z,99664.01
2023-03-05T12:55:27.078Z,99664.78
2023-03-05T12:58:00.431Z,99663.17
2023-03-05T13:00:37.155Z,99664.65
2023-03-05T13:03:16.242Z,99663.64
2023-03-05T13:05:55.919Z,99663.21
2023-03-05T13:08:25.660Z,99664.08
2023-03-05T13:11:04.738Z,99661.81
2023-03-05T13:13:37.416Z,99659.28
2023-03-05T13:16:05.934Z,99656.48
2023-03-05T13:18:34.678Z,99656.27
2023-03-05T13:21:05.635Z,99651.84
2023-03-05T13:23:34.976Z,99645.88
2023-03-05T13:26:19.061Z,99641.48
2023-03-05T13:29:02.566Z,99637.54
2023-03-05T13:31:31.420Z,99633.38
2023-03-05T13:34:18.613Z,99630.35
2023-03-05T13:37:01.894Z,99633.65
2023-03-05T13:39:37.616Z,99632.02
2023-03-05T13:42:17.207Z,99628.64
2023-03-05T13:44:54.976Z,99624.27
2023-03-05T13:47:25.764Z,99621.60
2023-03-05T13:50:00.209Z,99619.16
2023-03-05T13:52:31.658Z,99618.80
2023-03-05T13:55:12.245Z,99616.66
2023-03-05T13:57:46.043Z,99613.05
2023-03-05T14:00:38.960Z,99605.74
2023-03-05T14:03:27.350Z,99605.64
2023-03-05T14:05:55.627Z,99600.02
2023-03-05T14:08:27.533Z,99596.11
2023-03-05T14:10:57.805Z,99593.18
2023-03-05T14:13:27.864Z,99589.75
2023-03-05T14:16:08.533Z,99587.46
2023-03-05T14:18:37.628Z,99584.34
2023-03-05T14:21:08.881Z,99579.74
2023-03-05T14:23:45.795Z,99583.53
2023-03-05T14:26:39.170Z,99582.23
2023-03-05T14:29:07.238Z,99577.23
2023-03-05T14:31:48.134Z,99578.23
2023-03-05T14:34:24.674Z,99570.62
2023-03-05T14:36:56.013Z,99566.36
2023-03-05T14:39:48.733Z,99565.29
2023-03-05T14:42:39.192Z,99564.46
2023-03-05T14:45:17.298Z,99566.40
2023-03-05T14:47:45.946Z,99562.02
2023-03-05T14:50:38.651Z,99562.39
2023-03-05T14:53:16.024Z,99562.54
2023-03-05T14:55:50.375Z,99558.33
2023-03-05T14:58:21.974Z,99566.60
2023-03-05T15:00:53.993Z,99560.83
2023-03-05T15:03:23.067Z,99565.79
2023-03-05T15:05:54.935Z,99565.30
2023-03-05T15:08:29.004Z,99563.83
2023-03-05T15:10:57.977Z,99561.44
2023-03-05T15:13:26.570Z,99563.88
2023-03-05T15:15:55.944Z,99564.65
2023-03-05T15:18:24.082Z,99569.20
2023-03-05T15:20:55.390Z,99567.41
2023-03-05T15:23:23.881Z,99567.83
2023-03-05T15:25:51.824Z,99571.33
2023-03-05T15:28:19.737Z,99569.39
2023-03-05T15:30:48.062Z,99567.83
2023-03-05T15:33:17.675Z,99570.81
2023-03-05T15:35:45.845Z,99574.37
2023-03-05T15:38:13.888Z,99572.05
2023-03-05T15:40:44.291Z,99571.14
2023-03-05T15:43:12.687Z,99567.50
2023-03-05T15:45:40.704Z,99567.89
2023-03-05T15:48:09.319Z,99567.34
2023-03-05T15:50:42.028Z,99573.52
2023-03-05T15:53:16.233Z,99569.73
2023-03-05T15:55:46.105Z,99569.11
2023-03-05T15:58:16.802Z,99568.64
2023-03-05T16:00:47.616Z,99569.38
2023-03-05T16:03:16.221Z,99569.41
2023-03-05T16:05:44.472Z,99572.15
2023-03-05T16:08:12.905Z,99570.16
2023-03-05T16:10:41.293Z,99573.48
2023-03-05T16:13:16.654Z,99576.48
2023-03-05T16:15:47.336Z,99577.23
2023-03-05T16:18:16.676Z,99579.59
2023-03-05T16:20:45.174Z,99576.96
2023-03-05T16:23:15.479Z,99581.18
2023-03-05T16:25:43.611Z,99588.41
2023-03-05T16:28:11.615Z,99586.05
2023-03-05T16:30:40.234Z,99586.88
2023-03-05T16:33:08.377Z,99588.27
2023-03-05T16:35:36.500Z,99589.17
2023-03-05T16:38:04.654Z,99591.04
2023-03-05T16:41:02.898Z,99593.00
2023-03-05T16:43:25.115Z,99589.42
2023-03-05T16:45:53.182Z,99594.49
2023-03-05T16:48:26.973Z,99593.21
2023-03-05T16:51:00.204Z,99594.23
2023-03-05T16:53:28.096Z,99592.92
2023-03-05T16:55:56.291Z,99597.89
2023-03-05T16:58:24.247Z,99600.95
2023-03-05T17:00:52.359Z,99600.55
2023-03-05T17:03:20.588Z,99601.89
2023-03-05T17:05:49.051Z,99602.23
2023-03-05T17:08:17.954Z,99602.63
2023-03-05T17:10:45.930Z,99603.55
2023-03-05T17:13:14.024Z,99604.54
2023-03-05T17:18:14.805Z,99608.63
2023-03-05T17:20:42.782Z,99610.02
2023-03-05T17:23:10.830Z,99611.08
2023-03-05T17:25:38.838Z,99609.48
2023-03-05T17:28:06.770Z,99610.37
2023-03-05T17:30:37.054Z,99610.66
2023-03-05T17:33:05.615Z,99611.76
2023-03-05T17:35:35.402Z,99613.25
2023-03-05T17:38:05.853Z,99620.04
2023-03-05T17:40:34.567Z,99623.77
2023-03-05T17:43:03.881Z,99621.54
2023-03-05T17:45:32.492Z,99625.11
2023-03-05T17:48:00.381Z,99626.31
2023-03-05T17:50:28.614Z,99622.27
2023-03-05T17:52:56.763Z,99618.66
2023-03-05T17:55:25.733Z,99618.05
2023-03-05T17:57:54.151Z,99620.19
2023-03-05T18:00:28.117Z,99620.73
2023-03-05T18:02:57.918Z,99616.56
2023-03-05T18:05:31.097Z,99616.05
2023-03-05T18:08:03.471Z,99614.53
2023-03-05T18:10:32.618Z,99616.17
2023-03-05T18:13:00.885Z,99615.15
2023-03-05T18:15:29.581Z,99612.23
2023-03-05T18:17:58.757Z,99612.15
2023-03-05T18:20:36.385Z,99613.11
2023-03-05T18:23:05.770Z,99612.95
2023-03-05T18:25:34.794Z,99614.69
2023-03-05T18:28:06.531Z,99621.56
2023-03-05T18:30:35.389Z,99619.41
2023-03-05T18:33:04.758Z,99617.46
2023-03-05T18:35:35.270Z,99621.22
2023-03-05T18:38:03.394Z,99623.84
2023-03-05T18:40:35.907Z,99622.84
2023-03-05T18:43:03.911Z,99621.45
2023-03-05T18:45:34.071Z,99630.80
2023-03-05T18:48:02.177Z,99629.16
2023-03-05T18:50:30.305Z,99621.83
2023-03-05T18:53:02.994Z,99608.85
2023-03-05T18:55:31.309Z,99601.98
2023-03-05T18:57:59.339Z,99604.63
2023-03-05T19:00:30.505Z,99602.11
2023-03-05T19:02:59.059Z,99604.98
2023-03-05T19:05:27.326Z,99603.53
2023-03-05T19:07:56.440Z,99604.70
2023-03-05T19:10:26.734Z,99607.77
2023-03-05T19:13:39.813Z,99612.45
2023-03-05T19:16:15.968Z,99611.72
2023-03-05T19:19:08.267Z,99616.46
2023-03-05T19:21:46.473Z,99618.83
2023-03-05T19:24:15.635Z,99617.26
2023-03-05T19:26:44.439Z,99619.95
2023-03-05T19:29:12.598Z,99625.36
2023-03-05T19:31:41.807Z,99628.17
2023-03-05T19:34:10.041Z,99622.77
2023-03-05T19:36:38.611Z,99629.44
2023-03-05T19:39:08.332Z,99633.79
2023-03-05T19:41:37.209Z,99634.71
2023-03-05T19:44:05.489Z,99628.61
2023-03-05T19:46:33.765Z,99631.54
2023-03-05T19:49:01.948Z,99628.68
2023-03-05T19:51:30.489Z,99633.73
2023-03-05T19:53:58.529Z,99627.80
2023-03-05T19:56:26.842Z,99629.42
2023-03-05T19:58:55.004Z,99632.02
2023-03-05T20:01:26.406Z,99634.73
2023-03-05T20:03:57.313Z,99634.42
2023-03-05T20:06:27.114Z,99634.12
2023-03-05T20:08:56.548Z,99633.71
2023-03-05T20:11:26.428Z,99632.03
2023-03-05T20:13:57.192Z,99630.98
2023-03-05T20:16:29.830Z,99629.81
2023-03-05T20:18:59.438Z,99625.85
2023-03-05T20:21:30.804Z,99625.34
2023-03-05T20:24:02.322Z,99624.59
2023-03-05T20:26:31.067Z,99621.80
2023-03-05T20:28:59.473Z,99626.02
2023-03-05T20:31:28.112Z,99622.73
2023-03-05T20:34:02.238Z,99623.05
2023-03-05T20:36:30.211Z,99623.63
2023-03-05T20:38:58.314Z,99622.58
2023-03-05T20:41:26.554Z,99621.22
2023-03-05T20:43:55.282Z,99620.77
2023-03-05T20:46:25.281Z,99617.04
2023-03-05T20:48:56.629Z,99613.64
2023-03-05T20:51:28.384Z,99616.11
2023-03-05T20:54:02.634Z,99615.73
2023-03-05T20:56:32.533Z,99612.00
2023-03-05T20:59:03.929Z,99607.92
2023-03-05T21:01:34.182Z,99607.59
2023-03-05T21:04:03.273Z,99608.23
2023-03-05T21:06:32.595Z,99607.21
2023-03-05T21:09:00.885Z,99605.33
2023-03-05T21:11:29.585Z,99606.58
2023-03-05T21:13:57.669Z,99605.98
2023-03-05T21:16:27.636Z,99610.30
2023-03-05T21:18:57.239Z,99608.45
2023-03-05T21:21:25.753Z,99606.17
2023-03-05T21:23:54.079Z,99602.41
2023-03-05T21:26:22.169Z,99603.09
2023-03-05T21:28:50.103Z,99602.16
2023-03-05T21:31:21.135Z,99598.07
2023-03-05T21:33:49.244Z,99597.47
2023-03-05T21:36:20.123Z,99596.98
2023-03-05T21:38:49.165Z,99594.61
2023-03-05T21:41:19.979Z,99589.73
2023-03-05T21:43:48.096Z,99587.02
2023-03-05T21:46:16.127Z,99584.69
2023-03-05T21:48:44.241Z,99586.38
2023-03-05T21:52:09.145Z,99583.84
2023-03-05T21:54:38.602Z,99587.73
2023-03-05T21:57:08.010Z,99582.63
2023-03-05T21:59:38.767Z,99581.80
2023-03-05T22:02:11.736Z,99581.66
2023-03-05T22:04:39.909Z,99579.74
2023-03-05T22:07:08.443Z,99580.84
2023-03-05T22:09:36.470Z,99582.01
2023-03-05T22:12:47.636Z,99575.95
2023-03-05T22:15:22.300Z,99576.97
2023-03-05T22:17:50.359Z,99582.05
2023-03-05T22:20:18.849Z,99582.95
2023-03-05T22:22:46.826Z,99586.64
2023-03-05T22:25:16.120Z,99587.08
2023-03-05T22:27:44.858Z,99587.76
2023-03-05T22:30:13.338Z,99591.71
2023-03-05T22:32:41.771Z,99593.61
2023-03-05T22:35:12.501Z,99591.56
2023-03-05T22:37:41.620Z,99594.28
2023-03-05T22:40:15.205Z,99595.50
2023-03-05T22:42:44.386Z,99598.34
2023-03-05T22:45:17.616Z,99597.59
2023-03-05T22:47:48.429Z,99592.94
2023-03-05T22:50:17.596Z,99594.52
2023-03-05T22:52:45.613Z,99592.13
2023-03-05T22:55:15.496Z,99591.28
2023-03-05T22:57:44.443Z,99590.41
2023-03-05T23:00:16.710Z,99590.13
2023-03-05T23:02:45.263Z,99585.23
2023-03-05T23:05:13.404Z,99586.35
2023-03-05T23:07:42.897Z,99586.27
2023-03-05T23:10:16.111Z,99585.52
2023-03-05T23:12:49.403Z,99588.24
2023-03-05T23:15:26.458Z,99588.06
2023-03-05T23:17:54.438Z,99590.19
2023-03-05T23:20:35.232Z,99590.44
2023-03-05T23:23:04.150Z,99592.20
2023-03-05T23:25:34.199Z,99592.95
2023-03-05T23:28:03.468Z,99593.83
2023-03-05T23:30:34.648Z,99591.72
2023-03-05T23:33:02.661Z,99593.52
2023-03-05T23:35:34.223Z,99596.67
2023-03-05T23:38:05.375Z,99600.24
2023-03-05T23:40:36.492Z,99600.33
2023-03-05T23:43:04.501Z,99599.85
2023-03-05T23:45:32.813Z,99605.10
2023-03-05T23:48:01.240Z,99605.02
2023-03-05T23:50:32.994Z,99602.55
2023-03-05T23:53:02.394Z,99603.34
2023-03-05T23:55:36.976Z,99603.92
2023-03-05T23:58:04.851Z,99608.17
